Terminal Aerodrome Forecast
Issued by NWS

Home | Current Version | Previous Version | Text Only | Print | Product List | Glossary On
Versions: 1 2 3 4 5 6 7 8 9 10 11 12 13 14 15 16 17 18 19 20 21 22 23 24 25 26 27 28 29 30 31 32 33 34 35 36 37
000
FTUS44 KHGX 211503 AAA
TAFUTS
TAF AMD
KUTS 211503Z 2115/2212 19008KT P6SM SCT015 SCT030
      TEMPO 2115/2116 BKN022
     FM211700 18007KT P6SM FEW045
     FM212100 17009KT P6SM VCSH SCT050
     FM220100 18006KT P6SM SKC
     FM221000 VRB03KT P6SM BKN012=

USA.gov is the U.S. government's official web portal to all federal, state and local government web resources and services.